createdAt,value
2018-09-01T00:02:33.630Z,16.90
2018-09-01T00:06:06.843Z,16.90
2018-09-01T00:09:40.059Z,16.90
2018-09-01T00:13:14.121Z,16.90
2018-09-01T00:16:47.343Z,17.00
2018-09-01T00:20:20.567Z,17.00
2018-09-01T00:23:53.854Z,17.00
2018-09-01T00:27:27.089Z,17.10
2018-09-01T00:31:00.419Z,17.10
2018-09-01T00:34:33.643Z,17.00
2018-09-01T00:38:12.356Z,17.00
2018-09-01T00:41:45.556Z,17.00
2018-09-01T00:45:18.780Z,17.00
2018-09-01T00:48:51.999Z,17.00
2018-09-01T00:52:25.209Z,17.00
2018-09-01T00:55:58.440Z,17.00
2018-09-01T00:59:31.701Z,17.10
2018-09-01T01:03:04.939Z,17.10
2018-09-01T01:06:38.156Z,17.10
2018-09-01T01:10:11.383Z,17.10
2018-09-01T01:13:44.620Z,17.10
2018-09-01T01:17:17.832Z,17.10
2018-09-01T01:20:51.103Z,17.10
2018-09-01T01:24:24.300Z,17.10
2018-09-01T01:27:57.522Z,17.10
2018-09-01T01:31:30.744Z,17.10
2018-09-01T01:35:04.485Z,17.20
2018-09-01T01:38:37.724Z,17.10
2018-09-01T01:42:10.938Z,17.10
2018-09-01T01:45:44.167Z,17.10
2018-09-01T01:49:17.404Z,17.10
2018-09-01T01:52:50.625Z,17.10
2018-09-01T01:56:23.848Z,17.20
2018-09-01T01:59:57.080Z,17.20
2018-09-01T02:03:30.307Z,17.20
2018-09-01T02:07:03.572Z,17.20
2018-09-01T02:10:36.793Z,17.20
2018-09-01T02:14:10.256Z,17.20
2018-09-01T02:17:43.828Z,17.30
2018-09-01T02:21:17.139Z,17.30
2018-09-01T02:24:50.380Z,17.30
2018-09-01T02:28:23.604Z,17.30
2018-09-01T02:31:56.828Z,17.30
2018-09-01T02:35:30.059Z,17.30
2018-09-01T02:39:03.568Z,17.30
2018-09-01T02:42:36.812Z,17.30
2018-09-01T02:46:10.044Z,17.30
2018-09-01T02:49:43.697Z,17.20
2018-09-01T02:53:17.320Z,17.20
2018-09-01T02:56:50.540Z,17.10
2018-09-01T03:00:29.088Z,17.20
2018-09-01T03:04:03.406Z,17.20
2018-09-01T03:07:36.654Z,17.20
2018-09-01T03:11:09.908Z,17.20
2018-09-01T03:14:43.661Z,17.10
2018-09-01T03:18:16.873Z,17.10
2018-09-01T03:21:50.212Z,17.10
2018-09-01T03:25:23.456Z,17.10
2018-09-01T03:28:56.742Z,17.10
2018-09-01T03:32:29.980Z,17.10
2018-09-01T03:36:03.187Z,17.10
2018-09-01T03:39:36.418Z,17.00
2018-09-01T03:43:09.645Z,17.00
2018-09-01T03:46:42.942Z,17.00
2018-09-01T03:50:16.176Z,17.00
2018-09-01T03:53:49.405Z,17.00
2018-09-01T03:57:22.646Z,17.00
2018-09-01T04:00:55.880Z,17.00
2018-09-01T04:04:29.104Z,17.00
2018-09-01T04:08:02.326Z,17.00
2018-09-01T04:11:35.532Z,17.00
2018-09-01T04:15:08.757Z,17.00
2018-09-01T04:18:41.972Z,16.90
2018-09-01T04:22:15.201Z,16.90
2018-09-01T04:25:48.448Z,17.00
2018-09-01T04:29:21.670Z,17.00
2018-09-01T04:32:54.896Z,17.00
2018-09-01T04:36:28.133Z,16.90
2018-09-01T04:40:01.345Z,16.90
2018-09-01T04:43:34.580Z,16.90
2018-09-01T04:47:07.840Z,16.80
2018-09-01T04:50:41.101Z,16.80
2018-09-01T04:54:14.332Z,16.80
2018-09-01T04:57:47.552Z,16.70
2018-09-01T05:01:20.829Z,16.70
2018-09-01T05:04:54.004Z,16.70
2018-09-01T05:08:27.243Z,16.70
2018-09-01T05:12:00.485Z,16.70
2018-09-01T05:15:33.696Z,16.60
2018-09-01T05:19:06.994Z,16.60
2018-09-01T05:22:40.221Z,16.50
2018-09-01T05:26:13.487Z,16.50
2018-09-01T05:29:46.726Z,16.50
2018-09-01T05:33:19.949Z,16.50
2018-09-01T05:36:53.172Z,16.50
2018-09-01T05:40:26.432Z,16.50
2018-09-01T05:43:59.666Z,16.40
2018-09-01T05:47:32.887Z,16.40
2018-09-01T05:51:06.103Z,16.40
2018-09-01T05:54:39.385Z,16.40
2018-09-01T05:58:12.617Z,16.40
2018-09-01T06:01:45.865Z,16.40
2018-09-01T06:05:19.080Z,16.40
2018-09-01T06:08:52.350Z,16.40
2018-09-01T06:12:25.948Z,16.40
2018-09-01T06:15:59.387Z,16.40
2018-09-01T06:19:32.812Z,16.50
2018-09-01T06:23:06.534Z,16.60
2018-09-01T06:26:39.816Z,16.60
2018-09-01T06:30:15.967Z,16.70
2018-09-01T06:33:49.268Z,16.70
2018-09-01T06:37:22.587Z,16.80
2018-09-01T06:40:55.826Z,16.80
2018-09-01T06:44:29.050Z,16.80
2018-09-01T06:48:02.297Z,16.80
2018-09-01T06:51:35.619Z,16.80
2018-09-01T06:55:08.830Z,16.70
2018-09-01T06:58:42.161Z,16.80
2018-09-01T07:02:15.380Z,16.80
2018-09-01T07:05:48.631Z,16.90
2018-09-01T07:09:21.935Z,16.90
2018-09-01T07:12:55.152Z,17.00
2018-09-01T07:16:28.393Z,17.10
2018-09-01T07:20:01.650Z,17.20
2018-09-01T07:23:34.889Z,17.30
2018-09-01T07:27:08.244Z,17.30
2018-09-01T07:30:41.580Z,17.50
2018-09-01T07:34:14.717Z,17.70
2018-09-01T07:37:47.956Z,18.20
2018-09-01T07:41:21.181Z,18.50
2018-09-01T07:44:54.424Z,18.70
2018-09-01T07:48:27.648Z,18.80
2018-09-01T07:52:00.883Z,18.80
2018-09-01T07:55:34.111Z,18.80
2018-09-01T07:59:07.332Z,18.70
2018-09-01T08:02:40.572Z,18.70
2018-09-01T08:06:13.784Z,18.80
2018-09-01T08:09:47.010Z,18.80
2018-09-01T08:13:20.245Z,18.80
2018-09-01T08:16:53.480Z,18.80
2018-09-01T08:20:26.991Z,18.90
2018-09-01T08:24:00.796Z,18.90
2018-09-01T08:27:34.052Z,19.00
2018-09-01T08:31:07.278Z,19.10
2018-09-01T08:34:40.507Z,19.10
2018-09-01T08:38:13.725Z,19.30
2018-09-01T08:41:46.961Z,19.50
2018-09-01T08:45:20.242Z,19.60
2018-09-01T08:48:53.487Z,19.60
2018-09-01T08:52:26.716Z,19.60
2018-09-01T08:55:59.974Z,19.60
2018-09-01T08:59:33.196Z,19.50
2018-09-01T09:03:06.987Z,19.30
2018-09-01T09:06:40.467Z,19.10
2018-09-01T09:10:13.677Z,19.10
2018-09-01T09:13:46.905Z,19.10
2018-09-01T09:17:20.146Z,19.00
2018-09-01T09:20:53.387Z,19.00
2018-09-01T09:24:26.625Z,19.10
2018-09-01T09:27:59.841Z,19.10
2018-09-01T09:31:33.077Z,19.20
2018-09-01T09:35:06.319Z,19.20
2018-09-01T09:38:39.528Z,19.30
2018-09-01T09:42:12.771Z,19.50
2018-09-01T09:45:45.999Z,19.60
2018-09-01T09:49:19.236Z,19.70
2018-09-01T09:52:52.483Z,19.80
2018-09-01T09:56:25.737Z,20.10
2018-09-01T09:59:58.960Z,20.30
2018-09-01T10:03:32.792Z,20.40
2018-09-01T10:07:06.040Z,20.40
2018-09-01T10:10:39.275Z,20.50
2018-09-01T10:14:13.007Z,20.60
2018-09-01T10:17:46.253Z,20.50
2018-09-01T10:21:19.480Z,20.60
2018-09-01T10:24:52.708Z,20.70
2018-09-01T10:28:26.126Z,20.60
2018-09-01T10:31:59.373Z,20.50
2018-09-01T10:35:32.645Z,20.40
2018-09-01T10:39:08.240Z,20.40
2018-09-01T10:42:41.473Z,20.30
2018-09-01T10:46:14.699Z,20.40
2018-09-01T10:49:47.931Z,20.40
2018-09-01T10:53:21.161Z,20.40
2018-09-01T10:56:54.386Z,20.60
2018-09-01T11:00:27.625Z,20.60
2018-09-01T11:04:00.846Z,20.70
2018-09-01T11:07:34.079Z,20.80
2018-09-01T11:11:07.322Z,20.90
2018-09-01T11:14:40.548Z,20.90
2018-09-01T11:18:13.771Z,21.00
2018-09-01T11:21:47.183Z,21.00
2018-09-01T11:25:20.424Z,21.00
2018-09-01T11:28:53.664Z,21.00
2018-09-01T11:32:27.252Z,21.00
2018-09-01T11:36:00.509Z,21.00
2018-09-01T11:39:33.757Z,21.10
2018-09-01T11:43:07.132Z,21.30
2018-09-01T11:46:40.256Z,21.40
2018-09-01T11:50:13.487Z,21.50
2018-09-01T11:53:46.719Z,21.60
2018-09-01T11:57:19.964Z,21.60
2018-09-01T12:00:53.193Z,21.60
2018-09-01T12:04:26.436Z,21.60
2018-09-01T12:07:59.708Z,21.60
2018-09-01T12:11:32.953Z,21.50
2018-09-01T12:15:06.210Z,21.50
2018-09-01T12:18:39.460Z,21.30
2018-09-01T12:22:12.707Z,21.30
2018-09-01T12:25:45.936Z,21.30
2018-09-01T12:29:19.164Z,21.30
2018-09-01T12:32:52.389Z,21.40
2018-09-01T12:36:25.612Z,21.60
2018-09-01T12:39:58.848Z,21.80
2018-09-01T12:43:32.082Z,21.90
2018-09-01T12:47:05.316Z,21.90
2018-09-01T12:50:38.632Z,21.90
2018-09-01T12:54:11.856Z,21.90
2018-09-01T12:57:45.084Z,21.80
2018-09-01T13:01:18.320Z,21.70
2018-09-01T13:04:51.563Z,21.60
2018-09-01T13:08:25.061Z,21.40
2018-09-01T13:11:58.286Z,21.20
2018-09-01T13:15:31.512Z,21.10
2018-09-01T13:19:04.753Z,21.00
2018-09-01T13:22:38.820Z,21.00
2018-09-01T13:26:12.047Z,21.10
2018-09-01T13:29:45.276Z,21.10
2018-09-01T13:33:18.516Z,21.20
2018-09-01T13:36:51.748Z,21.20
2018-09-01T13:40:25.016Z,21.30
2018-09-01T13:43:58.250Z,21.30
2018-09-01T13:47:31.477Z,21.40
2018-09-01T13:51:04.712Z,21.50
2018-09-01T13:54:37.940Z,21.60
2018-09-01T13:58:11.233Z,21.60
2018-09-01T14:01:44.471Z,21.70
2018-09-01T14:05:17.703Z,21.70
2018-09-01T14:08:50.931Z,21.70
2018-09-01T14:12:24.172Z,21.60
2018-09-01T14:15:57.396Z,21.60
2018-09-01T14:19:30.650Z,21.50
2018-09-01T14:23:03.884Z,21.60
2018-09-01T14:26:37.140Z,21.50
2018-09-01T14:30:10.422Z,21.40
2018-09-01T14:33:43.663Z,21.40
2018-09-01T14:37:16.988Z,21.30
2018-09-01T14:40:50.137Z,21.30
2018-09-01T14:44:23.363Z,21.20
2018-09-01T14:47:56.592Z,21.20
2018-09-01T14:51:29.809Z,21.10
2018-09-01T14:55:03.059Z,21.00
2018-09-01T14:58:36.316Z,21.00
2018-09-01T15:02:09.570Z,21.00
2018-09-01T15:05:42.848Z,20.80
2018-09-01T15:09:16.088Z,20.80
2018-09-01T15:12:49.333Z,20.80
2018-09-01T15:16:22.612Z,20.80
2018-09-01T15:19:55.868Z,20.80
2018-09-01T15:23:29.100Z,20.80
2018-09-01T15:27:02.335Z,20.70
2018-09-01T15:30:35.561Z,20.60
2018-09-01T15:34:08.825Z,20.60
2018-09-01T15:37:42.057Z,20.50
2018-09-01T15:41:15.299Z,20.40
2018-09-01T15:44:48.593Z,20.40
2018-09-01T15:48:21.777Z,20.40
2018-09-01T15:51:55.002Z,20.40
2018-09-01T15:55:28.281Z,20.30
2018-09-01T15:59:01.534Z,20.30
2018-09-01T16:02:34.765Z,20.20
2018-09-01T16:06:08.000Z,20.10
2018-09-01T16:09:41.237Z,20.10
2018-09-01T16:13:14.571Z,20.00
2018-09-01T16:16:47.804Z,19.90
2018-09-01T16:20:21.020Z,19.90
2018-09-01T16:23:54.257Z,19.80
2018-09-01T16:27:27.492Z,19.80
2018-09-01T16:31:00.729Z,19.70
2018-09-01T16:34:34.012Z,19.60
2018-09-01T16:38:07.219Z,19.50
2018-09-01T16:41:40.441Z,19.40
2018-09-01T16:45:13.716Z,19.30
2018-09-01T16:48:46.938Z,19.30
2018-09-01T16:52:20.253Z,19.20
2018-09-01T16:55:53.440Z,19.20
2018-09-01T16:59:26.668Z,19.10
2018-09-01T17:02:59.895Z,19.10
2018-09-01T17:06:33.113Z,19.10
2018-09-01T17:10:06.371Z,19.00
2018-09-01T17:13:40.053Z,18.90
2018-09-01T17:17:13.281Z,18.80
2018-09-01T17:20:46.504Z,18.80
2018-09-01T17:24:19.741Z,18.80
2018-09-01T17:27:53.279Z,18.80
2018-09-01T17:31:26.502Z,18.80
2018-09-01T17:34:59.737Z,18.80
2018-09-01T17:38:32.956Z,18.80
2018-09-01T17:42:06.185Z,18.80
2018-09-01T17:45:39.432Z,18.80
2018-09-01T17:49:12.692Z,18.80
2018-09-01T17:52:45.940Z,18.80
2018-09-01T17:56:19.587Z,18.80
2018-09-01T17:59:52.805Z,18.70
2018-09-01T18:03:26.037Z,18.70
2018-09-01T18:06:59.263Z,18.70
2018-09-01T18:10:32.501Z,18.70
2018-09-01T18:14:05.750Z,18.70
2018-09-01T18:17:39.018Z,18.60
2018-09-01T18:21:12.263Z,18.50
2018-09-01T18:24:45.513Z,18.50
2018-09-01T18:28:18.744Z,18.40
2018-09-01T18:31:52.205Z,18.30
2018-09-01T18:35:25.996Z,18.20
2018-09-01T18:38:59.198Z,18.20
2018-09-01T18:42:32.607Z,18.10
2018-09-01T18:46:05.924Z,18.10
2018-09-01T18:49:39.265Z,18.10
2018-09-01T18:53:12.507Z,18.10
2018-09-01T18:56:45.729Z,18.10
2018-09-01T19:00:19.041Z,18.20
2018-09-01T19:03:52.288Z,18.20
2018-09-01T19:07:25.520Z,18.10
2018-09-01T19:10:58.868Z,18.10
2018-09-01T19:14:32.528Z,18.10
2018-09-01T19:18:05.880Z,18.10
2018-09-01T19:21:39.196Z,18.10
2018-09-01T19:25:12.462Z,18.10
2018-09-01T19:28:45.812Z,18.10
2018-09-01T19:32:19.219Z,18.10
2018-09-01T19:35:52.465Z,18.00
2018-09-01T19:39:25.700Z,18.00
2018-09-01T19:42:58.929Z,18.00
2018-09-01T19:46:32.165Z,18.00
2018-09-01T19:50:05.404Z,18.00
2018-09-01T19:53:38.629Z,18.00
2018-09-01T19:57:11.855Z,18.00
2018-09-01T20:00:45.084Z,18.00
2018-09-01T20:04:18.304Z,18.00
2018-09-01T20:07:51.565Z,18.10
2018-09-01T20:11:24.784Z,18.10
2018-09-01T20:14:58.020Z,18.20
2018-09-01T20:18:31.248Z,18.20
2018-09-01T20:22:04.517Z,18.30
2018-09-01T20:25:37.755Z,18.30
2018-09-01T20:29:10.973Z,18.40
2018-09-01T20:32:44.228Z,18.40
2018-09-01T20:36:20.065Z,18.40
2018-09-01T20:39:53.305Z,18.50
2018-09-01T20:43:26.542Z,18.50
2018-09-01T20:46:59.759Z,18.40
2018-09-01T20:50:32.980Z,18.50
2018-09-01T20:54:06.220Z,18.50
2018-09-01T20:57:39.481Z,18.50
2018-09-01T21:01:12.700Z,18.50
2018-09-01T21:04:45.948Z,18.40
2018-09-01T21:08:19.163Z,18.30
2018-09-01T21:11:52.388Z,18.30
2018-09-01T21:15:25.597Z,18.30
2018-09-01T21:18:58.824Z,18.30
2018-09-01T21:22:32.071Z,18.30
2018-09-01T21:26:05.541Z,18.30
2018-09-01T21:29:38.800Z,18.30
2018-09-01T21:33:12.040Z,18.40
2018-09-01T21:36:45.303Z,18.40
2018-09-01T21:40:18.629Z,18.30
2018-09-01T21:43:51.870Z,18.30
2018-09-01T21:47:25.104Z,18.30
2018-09-01T21:50:58.400Z,18.30
2018-09-01T21:54:31.610Z,18.30
2018-09-01T21:58:04.861Z,18.20
2018-09-01T22:01:38.084Z,18.20
2018-09-01T22:05:15.220Z,18.20
2018-09-01T22:08:48.863Z,18.30
2018-09-01T22:12:22.470Z,18.30
2018-09-01T22:15:55.702Z,18.30
2018-09-01T22:19:29.079Z,18.30
2018-09-01T22:23:02.308Z,18.30
2018-09-01T22:26:35.547Z,18.30
2018-09-01T22:30:08.825Z,18.30
2018-09-01T22:33:42.029Z,18.30
2018-09-01T22:37:15.259Z,18.40
2018-09-01T22:40:48.488Z,18.40
2018-09-01T22:44:21.696Z,18.40
2018-09-01T22:47:54.935Z,18.40
2018-09-01T22:51:28.166Z,18.40
2018-09-01T22:55:01.394Z,18.40
2018-09-01T22:58:34.631Z,18.40
2018-09-01T23:02:07.852Z,18.40
2018-09-01T23:05:41.067Z,18.30
2018-09-01T23:09:14.342Z,18.30
2018-09-01T23:12:47.611Z,18.30
2018-09-01T23:16:20.815Z,18.30
2018-09-01T23:19:54.048Z,18.20
2018-09-01T23:23:27.263Z,18.20
2018-09-01T23:27:00.491Z,18.20
2018-09-01T23:30:33.713Z,18.20
2018-09-01T23:34:06.995Z,18.20
2018-09-01T23:37:40.228Z,18.10
2018-09-01T23:41:13.461Z,18.10
2018-09-01T23:44:46.678Z,18.10
2018-09-01T23:48:19.918Z,18.10
2018-09-01T23:51:53.187Z,18.10
2018-09-01T23:55:26.421Z,18.10
2018-09-01T23:58:59.662Z,18.10
